W9RBI Weather Reports


Display with metric or nautical units.
time (UTC)temp
F
wind
direction
speed
MPH
gust
MPH
rain 1hr
in
rain 24hr
in
rain mn
in
humidity
%
barometer
mb
20240304092904 52 144 2.0 2.0 0.00 0.00 0.00 91 1013.2
20240304092402 53 146 3.0 3.0 0.00 0.00 0.00 90 1013.2
20240304091900 53 162 3.0 5.0 0.00 0.00 0.00 90 1013.1
20240304091359 53 170 5.0 6.0 0.00 0.00 0.00 89 1013.1
20240304090858 53 150 4.0 5.0 0.00 0.00 0.00 90 1013.1
20240304090358 53 153 5.0 6.0 0.00 0.00 0.00 90 1012.8
20240304085858 53 151 4.0 5.0 0.00 0.00 0.00 89 1013.0
20240304085357 53 170 3.0 3.0 0.00 0.00 0.00 89 1013.2
20240304084857 52 166 4.0 5.0 0.00 0.00 0.00 89 1013.0
20240304084357 52 161 4.0 5.0 0.00 0.00 0.00 90 1013.0
20240304083854 52 148 3.0 3.0 0.00 0.00 0.00 89 1013.1
20240304083354 52 163 4.0 5.0 0.00 0.00 0.00 89 1013.2
20240304082853 52 173 2.0 3.0 0.00 0.00 0.00 89 1013.0
20240304082351 53 158 2.0 2.0 0.00 0.00 0.00 89 1013.2
20240304081850 53 156 3.0 3.0 0.00 0.00 0.00 89 1013.2
20240304081349 54 177 2.0 2.0 0.00 0.00 0.00 87 1013.1
20240304080848 54 178 2.0 2.0 0.00 0.00 0.00 87 1013.2
20240304080348 54 183 1.0 1.0 0.00 0.00 0.00 87 1013.3
20240304075846 54 173 2.0 2.0 0.00 0.00 0.00 85 1013.2
20240304075346 55 184 3.0 3.0 0.00 0.00 0.00 85 1013.2
20240304074845 55 215 1.0 2.0 0.00 0.00 0.00 85 1013.3
20240304074344 55 175 2.0 2.0 0.00 0.00 0.00 84 1013.2
20240304073844 55 210 3.0 3.0 0.00 0.00 0.00 84 1013.3
20240304073342 55 184 4.0 6.0 0.00 0.00 0.00 83 1013.3
20240304072839 55 218 3.0 3.0 0.00 0.00 0.00 83 1013.2
20240304072339 56 204 5.0 6.0 0.00 0.00 0.00 82 1013.2
20240304071838 56 191 4.0 5.0 0.00 0.00 0.00 81 1013.1
20240304071336 56 207 7.0 8.0 0.00 0.00 0.00 81 1013.0
20240304070835 57 193 6.0 6.0 0.00 0.00 0.00 81 1013.0
20240304070333 56 177 8.0 9.0 0.00 0.00 0.00 82 1013.0
20240304065831 56 175 7.0 9.0 0.00 0.00 0.00 80 1012.8
20240304065331 57 188 8.0 9.0 0.00 0.00 0.00 80 1012.8
20240304064830 56 196 5.0 7.0 0.00 0.00 0.00 79 1012.5
20240304064328 57 199 7.0 9.0 0.00 0.00 0.00 79 1012.6
20240304063826 57 214 4.0 5.0 0.00 0.00 0.00 78 1012.6
20240304063326 57 194 5.0 6.0 0.00 0.00 0.00 77 1012.3
20240304062826 57 227 7.0 8.0 0.00 0.00 0.00 78 1012.5
20240304062325 57 191 6.0 7.0 0.00 0.00 0.00 78 1012.2
20240304061824 57 170 4.0 5.0 0.00 0.00 0.00 77 1012.3
20240304061324 58 199 7.0 8.0 0.00 0.00 0.00 76 1012.1
20240304060822 58 194 7.0 8.0 0.00 0.00 0.00 76 1011.7
20240304060322 58 181 11.0 13.0 0.00 0.00 0.00 75 1011.4
20240304055820 58 209 13.0 17.0 0.00 0.00 0.00 75 1011.2
20240304055320 58 163 9.0 9.0 0.00 0.00 0.00 74 1011.2
20240304054820 58 186 11.0 15.0 0.00 0.00 0.00 74 1011.3
20240304054318 58 189 8.0 11.0 0.00 0.00 0.00 73 1011.3
20240304053817 59 185 10.0 11.0 0.00 0.00 0.00 73 1011.1
20240304053316 59 188 11.0 13.0 0.00 0.00 0.00 73 1011.2
20240304052815 59 198 9.0 16.0 0.00 0.00 0.00 73 1011.1
20240304052315 59 202 11.0 13.0 0.00 0.00 0.00 73 1011.1
20240304051814 59 179 13.0 16.0 0.00 0.00 0.00 72 1011.0
20240304051312 59 162 11.0 15.0 0.00 0.00 0.00 72 1011.0
20240304050811 59 159 12.0 14.0 0.00 0.00 0.00 72 1010.9
20240304050310 58 192 11.0 15.0 0.00 0.00 0.00 71 1010.9
20240304045810 59 163 10.0 13.0 0.00 0.00 0.00 71 1010.9
20240304045308 59 138 9.0 10.0 0.00 0.00 0.00 70 1011.0
20240304044809 59 197 10.0 13.0 0.00 0.00 0.00 70 1010.8
20240304044308 59 192 11.0 13.0 0.00 0.00 0.00 70 1010.9
20240304043806 59 201 11.0 13.0 0.00 0.00 0.00 69 1010.8
20240304043304 59 219 9.0 10.0 0.00 0.00 0.00 69 1010.5
20240304042802 60 192 12.0 15.0 0.00 0.00 0.00 69 1010.7
20240304042305 60 193 11.0 14.0 0.00 0.00 0.00 68 1010.5
20240304041801 60 151 12.0 17.0 0.00 0.00 0.00 68 1010.5
20240304041259 60 184 13.0 17.0 0.00 0.00 0.00 68 1010.6
20240304040758 59 181 11.0 14.0 0.00 0.00 0.00 68 1010.5
20240304040257 59 175 10.0 14.0 0.00 0.00 0.00 68 1010.3
20240304035756 59 180 11.0 13.0 0.00 0.00 0.00 67 1010.5
20240304035254 59 149 9.0 11.0 0.00 0.00 0.00 67 1010.3
20240304034752 59 155 11.0 14.0 0.00 0.00 0.00 67 1010.3
20240304034250 59 194 11.0 13.0 0.00 0.00 0.00 67 1010.1
20240304033749 59 160 10.0 11.0 0.00 0.00 0.00 66 1010.3
20240304033246 60 171 10.0 14.0 0.00 0.00 0.00 65 1010.2
20240304032745 60 183 10.0 15.0 0.00 0.00 0.00 65 1010.2
20240304032243 60 183 11.0 14.0 0.00 0.00 0.00 65 1010.1
20240304031743 60 179 12.0 16.0 0.00 0.00 0.00 64 1010.2
20240304031241 60 181 11.0 13.0 0.00 0.00 0.00 63 1010.0
20240304030739 60 194 11.0 15.0 0.00 0.00 0.00 63 1010.0
20240304030238 61 167 15.0 17.0 0.00 0.00 0.00 62 1010.0
20240304025738 61 172 10.0 11.0 0.00 0.00 0.00 62 1010.1
20240304025237 61 187 11.0 13.0 0.00 0.00 0.00 62 1009.9
20240304024734 61 159 12.0 17.0 0.00 0.00 0.00 61 1010.0
20240304024232 61 171 13.0 17.0 0.00 0.00 0.00 60 1009.7
20240304023731 61 204 14.0 18.0 0.00 0.00 0.00 60 1010.0
20240304023231 62 184 11.0 14.0 0.00 0.00 0.00 59 1009.8
20240304022729 62 183 14.0 18.0 0.00 0.00 0.00 58 1009.7
20240304022229 62 157 15.0 18.0 0.00 0.00 0.00 58 1009.7
20240304021727 62 180 11.0 13.0 0.00 0.00 0.00 58 1009.6
20240304021226 62 188 12.0 17.0 0.00 0.00 0.00 58 1009.6
20240304020724 62 194 12.0 15.0 0.00 0.00 0.00 58 1009.4
20240304020223 62 162 12.0 18.0 0.00 0.00 0.00 57 1009.3
20240304015722 62 195 12.0 15.0 0.00 0.00 0.00 57 1009.3
20240304015222 62 188 12.0 16.0 0.00 0.00 0.00 57 1009.4
20240304014720 62 136 9.0 13.0 0.00 0.00 0.00 56 1009.1
20240304014220 63 187 12.0 16.0 0.00 0.00 0.00 56 1009.3
20240304013719 63 180 12.0 14.0 0.00 0.00 0.00 55 1009.1
20240304013213 63 194 14.0 20.0 0.00 0.00 0.00 55 1009.0
20240304012713 63 188 12.0 15.0 0.00 0.00 0.00 55 1008.9
20240304012212 63 161 14.0 17.0 0.00 0.00 0.00 54 1009.0
20240304011712 63 168 11.0 14.0 0.00 0.00 0.00 54 1009.0
20240304011210 63 190 15.0 18.0 0.00 0.00 0.00 54 1009.0
20240304010708 64 193 11.0 14.0 0.00 0.00 0.00 53 1009.0
20240304010204 64 153 14.0 22.0 0.00 0.00 0.00 53 1009.2
20240304005704 64 124 16.0 21.0 0.00 0.00 0.00 53 1008.8
20240304005201 64 141 13.0 17.0 0.00 0.00 0.00 53 1008.5
20240304004701 64 148 13.0 16.0 0.00 0.00 0.00 52 1008.8
20240304004200 65 147 14.0 18.0 0.00 0.00 0.00 51 1008.6
20240304003657 65 167 15.0 20.0 0.00 0.00 0.00 51 1008.2
20240304003156 65 181 15.0 25.0 0.00 0.00 0.00 51 1008.5
20240304002654 65 192 16.0 21.0 0.00 0.00 0.00 50 1008.5
20240304002152 65 192 13.0 20.0 0.00 0.00 0.00 49 1008.6
20240304001653 65 185 14.0 17.0 0.00 0.00 0.00 49 1008.4
20240304001151 65 186 16.0 23.0 0.00 0.00 0.00 49 1008.4
20240304000651 66 185 14.0 20.0 0.00 0.00 0.00 48 1007.9
20240304000149 66 202 12.0 17.0 0.00 0.00 0.00 48 1008.0
20240303235649 66 140 9.0 10.0 0.00 0.00 0.00 47 1008.4
20240303235149 66 136 11.0 15.0 0.00 0.00 0.00 46 1008.1
20240303234647 66 201 9.0 13.0 0.00 0.00 0.00 46 1008.0
20240303234146 67 155 11.0 15.0 0.00 0.00 0.00 45 1008.2
20240303233645 67 158 9.0 14.0 0.00 0.00 0.00 44 1008.1
20240303233143 67 160 14.0 22.0 0.00 0.00 0.00 44 1007.8
20240303232641 68 205 12.0 15.0 0.00 0.00 0.00 43 1008.0
20240303232140 68 180 13.0 17.0 0.00 0.00 0.00 43 1008.0
20240303231637 68 153 11.0 14.0 0.00 0.00 0.00 42 1008.0
20240303231136 68 166 18.0 27.0 0.00 0.00 0.00 41 1008.0
20240303230634 69 180 14.0 17.0 0.00 0.00 0.00 40 1008.0
20240303230133 69 163 15.0 16.0 0.00 0.00 0.00 40 1008.0
20240303225633 69 165 15.0 18.0 0.00 0.00 0.00 39 1007.8
20240303225131 69 191 9.0 11.0 0.00 0.00 0.00 39 1008.0
20240303224630 70 163 14.0 16.0 0.00 0.00 0.00 38 1007.9
20240303224128 70 172 14.0 20.0 0.00 0.00 0.00 37 1007.9
20240303223627 70 93 12.0 14.0 0.00 0.00 0.00 37 1008.1
20240303223123 71 130 13.0 18.0 0.00 0.00 0.00 36 1007.9
20240303222621 71 172 20.0 23.0 0.00 0.00 0.00 36 1007.8
20240303222120 71 190 19.0 26.0 0.00 0.00 0.00 35 1008.0
20240303221620 71 143 15.0 20.0 0.00 0.00 0.00 35 1007.8
20240303221118 72 174 20.0 27.0 0.00 0.00 0.00 34 1008.4
20240303220616 71 189 17.0 26.0 0.00 0.00 0.00 34 1008.1
20240303220115 72 176 18.0 23.0 0.00 0.00 0.00 34 1008.4
20240303215614 72 195 20.0 24.0 0.00 0.00 0.00 33 1008.2
20240303215112 72 146 16.0 21.0 0.00 0.00 0.00 33 1008.4
20240303214612 72 173 17.0 23.0 0.00 0.00 0.00 32 1008.7
20240303214111 72 183 22.0 26.0 0.00 0.00 0.00 32 1008.5
20240303213612 72 195 20.0 29.0 0.00 0.00 0.00 32 1008.8
20240303213110 72 150 21.0 26.0 0.00 0.00 0.00 32 1008.7
20240303212608 72 193 19.0 22.0 0.00 0.00 0.00 32 1008.9
20240303212108 72 173 16.0 24.0 0.00 0.00 0.00 32 1008.7
20240303211608 72 172 13.0 15.0 0.00 0.00 0.00 32 1008.7
20240303211107 72 175 18.0 26.0 0.00 0.00 0.00 31 1008.9
20240303210606 72 206 19.0 30.0 0.00 0.00 0.00 32 1008.9
20240303210105 72 207 19.0 25.0 0.00 0.00 0.00 31 1008.8
20240303205604 72 158 22.0 33.0 0.00 0.00 0.00 30 1008.8
20240303205103 72 168 17.0 22.0 0.00 0.00 0.00 33 1009.0
20240303204601 72 142 24.0 33.0 0.00 0.00 0.00 33 1008.9
20240303204101 72 175 21.0 27.0 0.00 0.00 0.00 32 1009.0
20240303203600 72 181 20.0 24.0 0.00 0.00 0.00 34 1009.2
20240303203059 72 162 21.0 29.0 0.00 0.00 0.00 32 1009.0
20240303202558 72 162 22.0 26.0 0.00 0.00 0.00 35 1009.0
20240303202057 72 148 20.0 30.0 0.00 0.00 0.00 32 1009.2
20240303201557 72 166 18.0 23.0 0.00 0.00 0.00 35 1009.1
20240303201055 71 204 19.0 27.0 0.00 0.00 0.00 35 1009.2
20240303200554 71 173 18.0 22.0 0.00 0.00 0.00 35 1009.5
20240303200052 71 164 20.0 24.0 0.00 0.00 0.00 36 1009.3
20240303195552 71 167 18.0 27.0 0.00 0.00 0.00 36 1009.4
20240303195053 71 157 20.0 23.0 0.00 0.00 0.00 36 1009.3
20240303194551 71 178 22.0 27.0 0.00 0.00 0.00 37 1009.5
20240303194051 71 173 19.0 27.0 0.00 0.00 0.00 37 1009.5
20240303193551 71 165 17.0 21.0 0.00 0.00 0.00 36 1009.3
20240303193050 70 195 17.0 23.0 0.00 0.00 0.00 37 1010.0
20240303192549 70 201 19.0 21.0 0.00 0.00 0.00 38 1009.6
20240303192049 70 179 15.0 20.0 0.00 0.00 0.00 39 1009.6
20240303191548 70 171 13.0 18.0 0.00 0.00 0.00 40 1009.6
20240303191048 69 181 15.0 20.0 0.00 0.00 0.00 40 1009.9
20240303190548 69 151 16.0 22.0 0.00 0.00 0.00 42 1009.9
20240303190047 69 194 26.0 29.0 0.00 0.00 0.00 42 1010.1
20240303185547 69 184 11.0 13.0 0.00 0.00 0.00 44 1010.3
20240303185045 69 140 11.0 20.0 0.00 0.00 0.00 44 1010.3
20240303184545 69 178 18.0 29.0 0.00 0.00 0.00 44 1010.3
20240303184045 68 194 23.0 29.0 0.00 0.00 0.00 46 1010.4
20240303183545 68 206 21.0 30.0 0.00 0.00 0.00 46 1010.5
20240303183043 68 177 15.0 21.0 0.00 0.00 0.00 48 1010.3
20240303182542 68 162 17.0 21.0 0.00 0.00 0.00 48 1010.6
20240303182041 68 172 17.0 22.0 0.00 0.00 0.00 51 1010.8
20240303181541 67 193 13.0 21.0 0.00 0.00 0.00 52 1010.8
20240303181044 67 166 15.0 22.0 0.00 0.00 0.00 52 1011.2
20240303180539 66 144 16.0 21.0 0.00 0.00 0.00 54 1011.4
20240303180037 66 181 14.0 17.0 0.00 0.00 0.00 54 1011.2
20240303175537 66 176 16.0 21.0 0.00 0.00 0.00 56 1011.5
20240303175035 65 159 17.0 22.0 0.00 0.00 0.00 56 1011.6
20240303174514 65 143 16.0 21.0 0.00 0.00 0.00 57 1011.8
20240303174012 65 185 14.0 17.0 0.00 0.00 0.00 59 1011.7
20240303173512 64 187 13.0 22.0 0.00 0.00 0.00 59 1011.8
20240303173011 64 176 13.0 18.0 0.00 0.00 0.00 59 1012.3
20240303172509 64 162 17.0 18.0 0.00 0.00 0.00 60 1012.4
20240303172009 64 182 16.0 20.0 0.00 0.00 0.00 60 1012.3
20240303171507 63 194 16.0 17.0 0.00 0.00 0.00 62 1012.4
20240303171005 62 160 11.0 15.0 0.00 0.00 0.00 62 1012.3
20240303170503 62 156 22.0 26.0 0.00 0.00 0.00 63 1012.5
20240303165951 62 135 19.0 30.0 0.00 0.00 0.00 63 1012.4
20240303165450 62 150 13.0 18.0 0.00 0.00 0.00 63 1012.5
20240303164949 62 176 16.0 17.0 0.00 0.00 0.00 64 1012.7
20240303164448 61 129 13.0 21.0 0.00 0.00 0.00 65 1012.8
20240303163947 60 155 20.0 25.0 0.00 0.00 0.00 66 1012.7
20240303163447 60 166 19.0 23.0 0.00 0.00 0.00 66 1012.9
20240303162944 60 139 20.0 26.0 0.00 0.00 0.00 67 1013.0
20240303162442 60 148 16.0 21.0 0.00 0.00 0.00 67 1013.0
20240303161941 59 179 14.0 15.0 0.00 0.00 0.00 68 1013.1
20240303161441 59 171 16.0 21.0 0.00 0.00 0.00 68 1013.1
20240303160939 58 159 17.0 22.0 0.00 0.00 0.00 70 1013.3
20240303160438 58 190 20.0 25.0 0.00 0.00 0.00 70 1013.3
20240303155937 57 179 14.0 18.0 0.00 0.00 0.00 71 1013.3
20240303155435 57 162 15.0 20.0 0.00 0.00 0.00 71 1013.5
20240303154934 57 143 17.0 21.0 0.00 0.00 0.00 71 1013.3
20240303154433 57 176 21.0 29.0 0.00 0.00 0.00 72 1013.2
20240303153931 56 146 17.0 24.0 0.00 0.00 0.00 73 1013.4
20240303153430 56 188 16.0 18.0 0.00 0.00 0.00 74 1013.5
20240303152929 56 190 18.0 27.0 0.00 0.00 0.00 74 1013.6
20240303152427 56 174 14.0 16.0 0.00 0.00 0.00 75 1013.3
20240303151927 55 127 13.0 16.0 0.00 0.00 0.00 76 1013.4
20240303151426 55 174 16.0 20.0 0.00 0.00 0.00 77 1013.4
20240303150926 55 150 14.0 16.0 0.00 0.00 0.00 77 1013.4
20240303150425 54 196 15.0 31.0 0.00 0.00 0.00 78 1013.4
20240303145923 54 160 17.0 23.0 0.00 0.00 0.00 79 1013.7
20240303145423 53 183 16.0 22.0 0.00 0.00 0.00 81 1013.7
20240303144922 53 171 11.0 13.0 0.00 0.00 0.00 81 1013.4
20240303144421 52 162 15.0 18.0 0.00 0.00 0.00 81 1013.5
20240303143919 51 160 8.0 13.0 0.00 0.00 0.00 83 1013.6
20240303143419 51 180 9.0 10.0 0.00 0.00 0.00 84 1013.6
20240303142919 50 156 10.0 15.0 0.00 0.00 0.00 84 1013.7
20240303142418 50 169 9.0 10.0 0.00 0.00 0.00 85 1013.6
20240303141916 50 156 6.0 7.0 0.00 0.00 0.00 85 1013.6
20240303141415 49 152 17.0 23.0 0.00 0.00 0.00 86 1013.6
20240303140915 49 135 10.0 11.0 0.00 0.00 0.00 86 1013.8
20240303140414 48 161 5.0 7.0 0.00 0.00 0.00 87 1013.9
20240303135913 48 158 5.0 9.0 0.00 0.00 0.00 88 1013.9
20240303135412 47 158 10.0 13.0 0.00 0.00 0.00 88 1013.8
20240303134912 46 110 9.0 18.0 0.00 0.00 0.00 89 1013.9
20240303134411 46 147 9.0 11.0 0.00 0.00 0.00 90 1014.3
20240303133909 45 148 4.0 6.0 0.00 0.00 0.00 91 1014.1
20240303133407 45 149 5.0 8.0 0.00 0.00 0.00 91 1014.1
20240303132907 44 146 8.0 10.0 0.00 0.00 0.00 92 1014.4
20240303132406 44 154 6.0 8.0 0.00 0.00 0.00 92 1014.3
20240303131905 44 124 9.0 11.0 0.00 0.00 0.00 92 1014.4
20240303131404 44 152 4.0 5.0 0.00 0.00 0.00 92 1014.1
20240303130902 43 136 8.0 10.0 0.00 0.00 0.00 93 1014.3
20240303130400 43 124 4.0 6.0 0.00 0.00 0.00 93 1014.3
20240303125859 42 135 4.0 6.0 0.00 0.00 0.00 94 1014.4
20240303125359 42 115 5.0 7.0 0.00 0.00 0.00 94 1014.5
20240303124858 42 159 4.0 6.0 0.00 0.00 0.00 95 1014.6
20240303124358 41 139 6.0 9.0 0.00 0.00 0.00 95 1014.5
20240303123858 41 151 6.0 8.0 0.00 0.00 0.00 96 1014.4
20240303123357 41 147 4.0 6.0 0.00 0.00 0.00 95 1014.5
20240303122856 41 111 5.0 8.0 0.00 0.00 0.00 96 1014.5
20240303122356 41 121 4.0 5.0 0.00 0.00 0.00 96 1014.8
20240303121854 41 161 4.0 5.0 0.00 0.00 0.00 96 1014.5
20240303121354 41 145 7.0 9.0 0.00 0.00 0.00 96 1014.8
20240303120852 41 115 9.0 11.0 0.00 0.00 0.00 96 1014.6
20240303120352 41 133 5.0 6.0 0.00 0.00 0.00 96 1014.8
20240303115851 41 127 4.0 10.0 0.00 0.00 0.00 96 1014.7
20240303115351 41 154 5.0 6.0 0.00 0.00 0.00 96 1014.7
20240303114850 41 142 6.0 9.0 0.00 0.00 0.00 96 1014.8
20240303114349 41 141 3.0 5.0 0.00 0.00 0.00 96 1014.8
20240303113847 41 138 5.0 6.0 0.00 0.00 0.00 96 1014.7
20240303113347 41 140 4.0 5.0 0.00 0.00 0.00 96 1014.9
20240303112846 41 146 4.0 6.0 0.00 0.00 0.00 96 1014.7
20240303112345 41 103 5.0 6.0 0.00 0.00 0.00 96 1014.8
20240303111845 41 117 6.0 8.0 0.00 0.00 0.00 96 1014.6
20240303111343 41 126 2.0 3.0 0.00 0.00 0.00 96 1014.9
20240303110843 41 128 7.0 10.0 0.00 0.00 0.00 96 1014.9
20240303110342 41 98 6.0 10.0 0.00 0.00 0.00 96 1014.8
20240303105841 41 161 5.0 6.0 0.00 0.00 0.00 96 1015.0
20240303105340 41 167 7.0 9.0 0.00 0.00 0.00 96 1015.0
20240303104840 41 172 6.0 8.0 0.00 0.00 0.00 96 1014.9
20240303104339 41 139 7.0 10.0 0.00 0.00 0.00 96 1014.9
20240303103838 41 128 7.0 9.0 0.00 0.00 0.00 96 1015.0
20240303103336 41 116 6.0 7.0 0.00 0.00 0.00 96 1015.0
20240303102835 41 145 7.0 8.0 0.00 0.00 0.00 96 1014.9
20240303102334 40 135 5.0 7.0 0.00 0.00 0.00 96 1015.0
20240303101833 40 174 3.0 3.0 0.00 0.00 0.00 96 1015.1
20240303101331 40 124 3.0 3.0 0.00 0.00 0.00 96 1015.0
20240303100830 40 133 3.0 3.0 0.00 0.00 0.00 96 1015.0
20240303100328 40 135 6.0 7.0 0.00 0.00 0.00 96 1014.9
20240303095827 40 125 7.0 9.0 0.00 0.00 0.00 96 1015.2
20240303095327 40 147 5.0 7.0 0.00 0.00 0.00 96 1015.1
20240303094825 40 143 4.0 7.0 0.00 0.00 0.00 96 1015.2
20240303094325 40 154 4.0 7.0 0.00 0.00 0.00 96 1015.2
20240303093824 40 119 6.0 8.0 0.00 0.00 0.00 96 1015.1
20240303093323 40 122 7.0 10.0 0.00 0.00 0.00 96 1015.1